createdAt,value
2023-04-15T00:02:40.663Z,10.50
2023-04-15T00:07:40.579Z,9.60
2023-04-15T00:12:40.312Z,10.00
2023-04-15T00:17:40.206Z,9.70
2023-04-15T00:22:39.835Z,9.10
2023-04-15T00:27:39.981Z,8.90
2023-04-15T00:32:39.147Z,11.40
2023-04-15T00:37:39.254Z,10.80
2023-04-15T00:42:40.580Z,8.40
2023-04-15T00:47:43.226Z,8.90
2023-04-15T00:52:45.902Z,10.00
2023-04-15T00:57:46.299Z,8.80
2023-04-15T01:02:46.408Z,9.40
2023-04-15T01:07:46.243Z,10.30
2023-04-15T01:12:45.724Z,11.30
2023-04-15T01:17:45.678Z,9.50
2023-04-15T01:22:47.177Z,10.10
2023-04-15T01:27:47.918Z,9.30
2023-04-15T01:32:48.438Z,9.40
2023-04-15T01:37:48.841Z,9.10
2023-04-15T01:42:49.714Z,9.80
2023-04-15T01:47:50.534Z,10.80
2023-04-15T01:52:49.779Z,10.20
2023-04-15T01:57:50.435Z,9.70
2023-04-15T02:02:50.753Z,11.70
2023-04-15T02:07:49.717Z,9.80
2023-04-15T02:12:48.648Z,9.60
2023-04-15T02:17:51.258Z,9.80
2023-04-15T02:22:51.137Z,10.40
2023-04-15T02:27:50.411Z,8.90
2023-04-15T02:32:50.852Z,10.20
2023-04-15T02:37:49.730Z,10.60
2023-04-15T02:42:50.183Z,11.80
2023-04-15T02:47:50.252Z,9.10
2023-04-15T02:52:49.746Z,10.60
2023-04-15T02:57:48.864Z,10.80
2023-04-15T03:02:52.626Z,10.10
2023-04-15T03:08:11.880Z,12.20
2023-04-15T03:13:11.928Z,9.90
2023-04-15T03:18:11.953Z,12.70
2023-04-15T03:23:12.706Z,12.70
2023-04-15T03:28:12.645Z,10.60
2023-04-15T03:33:12.640Z,10.50
2023-04-15T03:38:13.692Z,11.30
2023-04-15T03:43:12.931Z,12.10
2023-04-15T03:48:17.624Z,10.50
2023-04-15T03:53:17.795Z,10.30
2023-04-15T03:58:16.818Z,10.70
2023-04-15T04:03:15.848Z,12.30
2023-04-15T04:08:16.631Z,10.30
2023-04-15T04:13:15.909Z,12.40
2023-04-15T04:18:15.170Z,9.90
2023-04-15T04:23:14.905Z,11.30
2023-04-15T04:28:14.297Z,10.70
2023-04-15T04:33:14.343Z,10.00
2023-04-15T04:38:13.784Z,9.90
2023-04-15T04:43:13.463Z,10.90
2023-04-15T04:48:11.976Z,11.70
2023-04-15T04:53:11.258Z,10.70
2023-04-15T04:58:10.205Z,11.40
2023-04-15T05:03:09.838Z,11.20
2023-04-15T05:08:09.421Z,9.00
2023-04-15T05:13:08.050Z,10.10
2023-04-15T05:18:06.778Z,11.00
2023-04-15T05:23:06.300Z,10.60
2023-04-15T05:28:05.874Z,10.10
2023-04-15T05:33:05.575Z,9.40
2023-04-15T05:38:04.450Z,11.30
2023-04-15T05:43:03.569Z,11.00
2023-04-15T05:48:03.334Z,11.70
2023-04-15T05:53:02.371Z,10.20
2023-04-15T05:58:01.979Z,9.40
2023-04-15T06:03:02.281Z,9.90
2023-04-15T06:08:01.587Z,11.80
2023-04-15T06:13:00.464Z,9.20
2023-04-15T06:17:59.832Z,9.30
2023-04-15T06:22:58.845Z,9.30
2023-04-15T06:27:57.728Z,7.80
2023-04-15T06:32:58.147Z,8.60
2023-04-15T06:37:57.786Z,9.80
2023-04-15T06:42:56.741Z,8.60
2023-04-15T06:47:56.295Z,8.90
2023-04-15T06:52:57.516Z,7.60
2023-04-15T06:57:57.117Z,8.90
2023-04-15T07:02:57.127Z,9.90
2023-04-15T07:07:56.448Z,9.70
2023-04-15T07:12:56.249Z,9.30
2023-04-15T07:17:56.406Z,6.50
2023-04-15T07:22:55.569Z,9.10
2023-04-15T07:27:56.506Z,8.30
2023-04-15T07:32:55.589Z,7.10
2023-04-15T07:37:55.124Z,7.70
2023-04-15T07:42:54.620Z,9.00
2023-04-15T07:47:57.668Z,7.20
2023-04-15T07:52:57.631Z,7.10
2023-04-15T07:57:56.747Z,6.60
2023-04-15T08:02:57.659Z,8.00
2023-04-15T08:07:57.501Z,6.70
2023-04-15T08:12:57.707Z,6.00
2023-04-15T08:17:58.188Z,6.00
2023-04-15T08:22:58.414Z,5.50
2023-04-15T08:28:07.362Z,4.70
2023-04-15T08:33:07.123Z,5.10
2023-04-15T08:38:07.415Z,5.50
2023-04-15T08:43:09.539Z,4.70
2023-04-15T08:48:11.656Z,7.00
2023-04-15T08:53:11.107Z,6.40
2023-04-15T08:58:11.496Z,7.20
2023-04-15T09:03:12.428Z,6.60
2023-04-15T09:08:12.236Z,6.30
2023-04-15T09:13:13.230Z,4.90
2023-04-15T09:18:14.955Z,4.50
2023-04-15T09:23:20.757Z,5.30
2023-04-15T09:28:28.162Z,5.80
2023-04-15T09:33:28.286Z,5.80
2023-04-15T09:38:27.607Z,5.20
2023-04-15T09:43:41.076Z,4.80
2023-04-15T09:48:41.731Z,4.30
2023-04-15T09:53:41.499Z,5.30
2023-04-15T09:58:42.559Z,5.20
2023-04-15T10:03:47.275Z,4.30
2023-04-15T10:08:47.911Z,5.60
2023-04-15T10:13:50.721Z,3.90
2023-04-15T10:18:56.756Z,4.40
2023-04-15T10:23:57.280Z,3.90
2023-04-15T10:28:58.973Z,5.30
2023-04-15T10:34:04.478Z,4.00
2023-04-15T10:39:04.205Z,4.30
2023-04-15T10:44:07.254Z,4.90
2023-04-15T10:49:14.648Z,4.60
2023-04-15T10:54:33.923Z,5.80
2023-04-15T10:59:34.374Z,4.90
2023-04-15T11:04:59.109Z,4.70
2023-04-15T11:09:58.592Z,3.50
2023-04-15T11:14:58.781Z,6.50
2023-04-15T11:19:58.526Z,5.10
2023-04-15T11:24:59.685Z,4.70
2023-04-15T11:29:58.860Z,5.00
2023-04-15T11:34:58.688Z,4.20
2023-04-15T11:39:58.957Z,4.00
2023-04-15T11:45:12.517Z,4.80
2023-04-15T11:50:24.650Z,4.80
2023-04-15T11:55:24.412Z,3.70
2023-04-15T12:00:25.077Z,4.00
2023-04-15T12:05:25.099Z,3.80
2023-04-15T12:10:27.603Z,3.60
2023-04-15T12:15:29.334Z,3.50
2023-04-15T12:20:32.388Z,4.00
2023-04-15T12:25:39.777Z,5.50
2023-04-15T12:30:38.551Z,4.90
2023-04-15T12:35:38.331Z,4.80
2023-04-15T12:40:37.478Z,5.80
2023-04-15T12:45:36.841Z,6.60
2023-04-15T12:50:36.842Z,5.90
2023-04-15T12:55:36.713Z,4.90
2023-04-15T13:00:38.471Z,3.80
2023-04-15T13:05:39.416Z,5.20
2023-04-15T13:10:39.443Z,4.40
2023-04-15T13:15:38.994Z,4.80
2023-04-15T13:20:37.796Z,5.40
2023-04-15T13:25:36.831Z,5.80
2023-04-15T13:30:35.905Z,5.90
2023-04-15T13:35:37.078Z,4.10
2023-04-15T13:40:36.698Z,4.10
2023-04-15T13:45:36.514Z,4.30
2023-04-15T13:50:35.556Z,3.80
2023-04-15T13:55:35.218Z,3.40
2023-04-15T14:00:34.124Z,3.80
2023-04-15T14:05:33.834Z,5.00
2023-04-15T14:10:33.136Z,4.90
2023-04-15T14:15:32.179Z,2.70
2023-04-15T14:20:31.789Z,3.20
2023-04-15T14:25:33.999Z,3.00
2023-04-15T14:30:36.362Z,2.20
2023-04-15T14:35:35.474Z,2.90
2023-04-15T14:40:34.660Z,2.70
2023-04-15T14:45:35.011Z,3.20
2023-04-15T14:50:34.339Z,3.60
2023-04-15T14:55:35.217Z,2.30
2023-04-15T15:00:34.523Z,4.00
2023-04-15T15:05:33.796Z,2.40
2023-04-15T15:10:46.624Z,2.80
2023-04-15T15:15:50.953Z,2.60
2023-04-15T15:20:49.715Z,3.40
2023-04-15T15:25:49.601Z,1.60
2023-04-15T15:30:48.278Z,1.80
2023-04-15T15:35:48.200Z,2.90
2023-04-15T15:40:47.159Z,3.70
2023-04-15T15:45:46.970Z,1.70
2023-04-15T15:50:46.553Z,2.10
2023-04-15T15:55:46.199Z,3.00
2023-04-15T16:00:46.430Z,3.40
2023-04-15T16:05:47.380Z,2.30
2023-04-15T16:10:46.814Z,3.00
2023-04-15T16:15:45.853Z,2.80
2023-04-15T16:20:44.948Z,3.20
2023-04-15T16:25:45.928Z,2.60
2023-04-15T16:30:47.127Z,2.60
2023-04-15T16:35:46.395Z,2.80
2023-04-15T16:40:46.004Z,3.10
2023-04-15T16:45:51.386Z,3.50
2023-04-15T16:50:51.712Z,2.00
2023-04-15T16:55:50.737Z,3.20
2023-04-15T17:00:50.128Z,1.90
2023-04-15T17:05:49.498Z,2.70
2023-04-15T17:10:48.709Z,2.20
2023-04-15T17:15:48.365Z,2.70
2023-04-15T17:20:47.184Z,3.50
2023-04-15T17:25:48.903Z,3.60
2023-04-15T17:30:48.799Z,4.10
2023-04-15T17:35:48.237Z,3.80
2023-04-15T17:40:47.474Z,3.00
2023-04-15T17:45:47.581Z,3.50
2023-04-15T17:50:47.780Z,6.70
2023-04-15T17:55:47.940Z,6.10
2023-04-15T18:00:47.274Z,4.70
2023-04-15T18:05:46.993Z,3.10
2023-04-15T18:10:47.002Z,3.60
2023-04-15T18:15:47.288Z,5.10
2023-04-15T18:20:46.640Z,3.20
2023-04-15T18:25:47.673Z,3.30
2023-04-15T18:30:47.503Z,2.10
2023-04-15T18:35:48.098Z,2.70
2023-04-15T18:40:48.388Z,3.70
2023-04-15T18:45:48.236Z,4.40
2023-04-15T18:50:48.157Z,4.50
2023-04-15T18:55:47.004Z,5.10
2023-04-15T19:00:46.339Z,3.90
2023-04-15T19:05:46.143Z,4.70
2023-04-15T19:10:46.368Z,5.30
2023-04-15T19:15:45.271Z,6.30
2023-04-15T19:20:44.569Z,3.60
2023-04-15T19:25:44.226Z,4.50
2023-04-15T19:30:44.550Z,4.90
2023-04-15T19:35:45.158Z,3.40
2023-04-15T19:40:44.813Z,4.00
2023-04-15T19:45:45.829Z,3.90
2023-04-15T19:50:45.057Z,4.10
2023-04-15T19:55:43.767Z,4.50
2023-04-15T20:00:43.670Z,3.80
2023-04-15T20:05:43.554Z,3.10
2023-04-15T20:10:43.145Z,3.60
2023-04-15T20:15:42.116Z,3.40
2023-04-15T20:20:42.913Z,5.40
2023-04-15T20:25:43.307Z,3.50
2023-04-15T20:30:43.469Z,4.50
2023-04-15T20:35:42.225Z,4.90
2023-04-15T20:40:42.988Z,4.40
2023-04-15T20:45:42.331Z,3.60
2023-04-15T20:50:41.861Z,3.40
2023-04-15T20:55:43.543Z,3.40
2023-04-15T21:00:43.176Z,4.60
2023-04-15T21:05:42.750Z,3.20
2023-04-15T21:10:42.337Z,3.60
2023-04-15T21:15:41.971Z,4.30
2023-04-15T21:20:41.079Z,4.30
2023-04-15T21:25:39.850Z,3.90
2023-04-15T21:30:40.730Z,3.30
2023-04-15T21:35:40.776Z,3.00
2023-04-15T21:40:40.933Z,2.50
2023-04-15T21:45:43.157Z,3.70
2023-04-15T21:51:04.729Z,4.00
2023-04-15T21:56:04.398Z,4.90
2023-04-15T22:01:03.410Z,3.10
2023-04-15T22:06:02.487Z,3.80
2023-04-15T22:11:01.425Z,3.90
2023-04-15T22:16:00.293Z,3.60
2023-04-15T22:21:01.730Z,3.90
2023-04-15T22:26:02.448Z,3.20
2023-04-15T22:31:02.506Z,4.70
2023-04-15T22:36:01.535Z,4.10
2023-04-15T22:41:00.908Z,4.60
2023-04-15T22:46:00.575Z,3.30
2023-04-15T22:51:00.183Z,3.90
2023-04-15T22:55:59.782Z,4.10
2023-04-15T23:00:59.543Z,3.60
2023-04-15T23:05:58.517Z,4.20
2023-04-15T23:10:58.029Z,4.00
2023-04-15T23:15:58.025Z,4.00
2023-04-15T23:20:57.731Z,3.90
2023-04-15T23:25:57.344Z,5.30
2023-04-15T23:31:00.228Z,4.20
2023-04-15T23:36:00.225Z,4.80
2023-04-15T23:40:59.776Z,3.90
2023-04-15T23:45:58.774Z,3.80
2023-04-15T23:50:57.595Z,4.10
2023-04-15T23:55:58.955Z,4.40
